Time;durP1;ratioP1;P1;durP2;ratioP2;P2;SDS_P1;SDS_P2;PMS_P1;PMS_P2;Temp;Humidity;BMP_temperature;BMP_pressure;BME280_temperature;BME280_humidity;BME280_pressure;Samples;Min_cycle;Max_cycle;Signal;HPM_P1;HPM_P2
2023/04/24 00:00:14;;;;;;;18.20;9.98;;;14.40;99.90;;;;;;4918143;29;20027;-71
2023/04/24 00:02:46;;;;;;;18.95;9.20;;;14.20;99.90;;;;;;4917748;29;20384;-73
2023/04/24 00:09:16;;;;;;;14.07;8.02;;;14.00;99.90;;;;;;4853835;29;20124;-72
2023/04/24 00:11:42;;;;;;;15.68;7.32;;;14.00;99.90;;;;;;4853242;29;20117;-73
2023/04/24 00:14:07;;;;;;;15.32;8.10;;;14.00;99.90;;;;;;4862037;29;20049;-72
2023/04/24 00:16:33;;;;;;;13.15;7.88;;;14.00;99.90;;;;;;4861494;29;20065;-71
2023/04/24 00:19:00;;;;;;;19.40;9.10;;;13.90;99.90;;;;;;4861645;29;20044;-72
2023/04/24 00:21:26;;;;;;;16.23;8.90;;;13.80;99.90;;;;;;4861436;29;20450;-74
2023/04/24 00:23:53;;;;;;;21.10;9.80;;;13.80;99.90;;;;;;4861553;29;20077;-73
2023/04/24 00:26:19;;;;;;;14.38;9.32;;;13.70;99.90;;;;;;4861324;29;20029;-72
2023/04/24 00:28:44;;;;;;;21.35;8.85;;;13.60;99.90;;;;;;4861351;29;20442;-74
2023/04/24 00:31:10;;;;;;;16.02;9.02;;;13.60;99.90;;;;;;4860543;29;20030;-72
2023/04/24 00:33:36;;;;;;;17.00;9.38;;;13.70;99.90;;;;;;4844657;29;20378;-73
2023/04/24 00:36:02;;;;;;;20.40;9.15;;;13.70;99.90;;;;;;4844701;29;20088;-72
2023/04/24 00:38:28;;;;;;;18.35;9.20;;;13.60;99.90;;;;;;4859544;29;20038;-74
2023/04/24 00:40:54;;;;;;;16.30;8.60;;;13.60;99.90;;;;;;4844605;29;20113;-72
2023/04/24 00:43:20;;;;;;;16.98;8.60;;;13.60;99.90;;;;;;4856646;29;20033;-72
2023/04/24 00:45:46;;;;;;;20.10;9.05;;;13.40;99.90;;;;;;4844151;29;20037;-72
2023/04/24 00:48:12;;;;;;;22.45;8.25;;;13.50;99.90;;;;;;4859988;29;20025;-71
2023/04/24 00:50:39;;;;;;;14.43;7.70;;;13.60;99.90;;;;;;4853039;29;20041;-71
2023/04/24 00:53:05;;;;;;;13.90;7.90;;;13.60;99.90;;;;;;4839535;29;20042;-72
2023/04/24 00:55:32;;;;;;;13.23;7.60;;;13.60;99.90;;;;;;4844630;29;20041;-71
2023/04/24 00:57:59;;;;;;;12.63;7.47;;;13.70;99.90;;;;;;4860369;29;20025;-74
2023/04/24 01:00:25;;;;;;;12.80;7.25;;;13.60;99.90;;;;;;4854652;29;20034;-74
2023/04/24 01:02:53;;;;;;;12.23;7.60;;;13.60;99.90;;;;;;4853555;29;20034;-72
2023/04/24 01:05:18;;;;;;;11.95;7.25;;;13.60;99.90;;;;;;4860545;29;20052;-73
2023/04/24 01:07:48;;;;;;;17.42;7.88;;;13.60;99.90;;;;;;4860508;29;20489;-74
2023/04/24 01:10:14;;;;;;;14.02;7.07;;;13.60;99.90;;;;;;4844231;29;20034;-72
2023/04/24 01:12:40;;;;;;;15.40;7.47;;;13.60;99.90;;;;;;4859277;29;20128;-73
2023/04/24 01:15:07;;;;;;;15.60;7.55;;;13.50;99.90;;;;;;4859185;29;20042;-73
2023/04/24 01:17:34;;;;;;;17.35;8.13;;;13.50;99.90;;;;;;4860835;29;20078;-73
2023/04/24 01:20:04;;;;;;;14.48;7.70;;;13.30;99.90;;;;;;4859981;29;20034;-72
2023/04/24 01:22:30;;;;;;;17.95;8.73;;;13.20;99.90;;;;;;4860354;29;20025;-72
2023/04/24 01:24:57;;;;;;;17.85;8.48;;;13.20;99.90;;;;;;4859197;29;20128;-73
2023/04/24 01:27:23;;;;;;;22.80;8.77;;;13.10;99.90;;;;;;4858535;29;20045;-72
2023/04/24 01:29:49;;;;;;;13.07;7.80;;;13.10;99.90;;;;;;4860401;29;20034;-73
2023/04/24 01:32:15;;;;;;;16.70;8.30;;;13.00;99.90;;;;;;4859333;29;20042;-72
2023/04/24 01:34:41;;;;;;;15.10;8.85;;;13.00;99.90;;;;;;4858769;29;20045;-73
2023/04/24 01:37:06;;;;;;;16.33;8.80;;;12.90;99.90;;;;;;4859843;29;20115;-72
2023/04/24 01:39:33;;;;;;;13.60;7.68;;;12.90;99.90;;;;;;4860212;29;20132;-73
2023/04/24 01:42:02;;;;;;;16.17;7.95;;;12.90;99.90;;;;;;4858730;29;20098;-73
2023/04/24 01:44:28;;;;;;;15.20;8.77;;;12.80;99.90;;;;;;4859738;29;20093;-72
2023/04/24 01:46:55;;;;;;;16.52;8.70;;;12.80;99.90;;;;;;4857382;29;20431;-73
2023/04/24 01:49:21;;;;;;;16.35;8.57;;;12.70;99.90;;;;;;4850176;29;20385;-72
2023/04/24 01:51:47;;;;;;;13.68;8.35;;;12.60;99.90;;;;;;4860752;29;20037;-73
2023/04/24 01:54:25;;;;;;;15.23;9.32;;;12.60;99.90;;;;;;4843012;29;20034;-72
2023/04/24 01:56:51;;;;;;;18.30;9.13;;;12.60;99.90;;;;;;4856790;29;20029;-72
2023/04/24 01:59:21;;;;;;;15.85;9.43;;;12.50;99.90;;;;;;4843773;29;20060;-72
2023/04/24 02:01:47;;;;;;;16.60;9.20;;;12.50;99.90;;;;;;4858021;29;20062;-73
2023/04/24 02:04:15;;;;;;;13.48;9.07;;;12.50;99.90;;;;;;4864829;29;20025;-73
2023/04/24 02:06:49;;;;;;;14.65;9.63;;;12.40;99.90;;;;;;4829520;29;20034;-73
2023/04/24 02:09:15;;;;;;;13.50;8.35;;;12.30;99.90;;;;;;4877078;29;20051;-72
2023/04/24 02:11:41;;;;;;;17.15;9.75;;;12.30;99.90;;;;;;4859752;29;20049;-73
2023/04/24 02:14:07;;;;;;;14.90;10.20;;;12.30;99.90;;;;;;4875983;29;20040;-72
2023/04/24 02:16:35;;;;;;;15.35;9.35;;;12.20;99.90;;;;;;4860052;29;20040;-72
2023/04/24 02:19:02;;;;;;;17.27;9.88;;;12.20;99.90;;;;;;4861368;29;20045;-72
2023/04/24 02:21:30;;;;;;;17.98;9.93;;;12.10;99.90;;;;;;4871772;29;20421;-72
2023/04/24 02:23:57;;;;;;;16.60;9.90;;;12.20;99.90;;;;;;4859810;29;20081;-72
2023/04/24 02:26:23;;;;;;;14.88;9.77;;;12.20;99.90;;;;;;4864751;29;20021;-72
2023/04/24 02:28:51;;;;;;;16.25;9.40;;;12.20;99.90;;;;;;4881420;29;20044;-72
2023/04/24 02:31:18;;;;;;;29.00;10.18;;;12.10;99.90;;;;;;4880201;29;20370;-72
2023/04/24 02:33:44;;;;;;;29.67;21.63;;;12.20;99.90;;;;;;4860371;29;20044;-73
2023/04/24 02:36:10;;;;;;;16.77;11.10;;;12.10;99.90;;;;;;4876855;29;20029;-72
2023/04/24 02:38:36;;;;;;;15.18;10.05;;;12.20;99.90;;;;;;4879821;29;20048;-73
2023/04/24 02:41:05;;;;;;;22.30;11.80;;;12.20;99.90;;;;;;4878358;29;20041;-72
2023/04/24 02:43:32;;;;;;;15.25;9.50;;;12.20;99.90;;;;;;4874061;29;20419;-72
2023/04/24 02:45:58;;;;;;;15.88;8.98;;;12.20;99.90;;;;;;4878459;29;20513;-72
2023/04/24 02:48:24;;;;;;;13.73;9.05;;;12.10;99.90;;;;;;4858822;29;20078;-72
2023/04/24 02:50:51;;;;;;;17.58;11.50;;;12.20;99.90;;;;;;4862119;29;20116;-72
2023/04/24 02:53:17;;;;;;;22.73;14.15;;;12.20;99.90;;;;;;4862620;29;20093;-71
2023/04/24 02:55:43;;;;;;;17.27;10.15;;;12.20;99.90;;;;;;4860215;29;20489;-72
2023/04/24 02:58:12;;;;;;;14.60;8.85;;;12.20;99.90;;;;;;4880911;29;20425;-72
2023/04/24 03:00:39;;;;;;;27.05;18.33;;;12.30;99.90;;;;;;4878083;29;20045;-72
2023/04/24 03:03:05;;;;;;;29.33;21.33;;;12.30;99.90;;;;;;4874837;29;20037;-73
2023/04/24 03:05:31;;;;;;;40.90;30.42;;;12.40;99.90;;;;;;4874439;29;20109;-73
2023/04/24 03:07:57;;;;;;;37.63;26.52;;;12.40;99.90;;;;;;4858460;29;20053;-72
2023/04/24 03:10:24;;;;;;;23.65;17.38;;;12.50;99.90;;;;;;4882330;29;20560;-72
2023/04/24 03:12:50;;;;;;;19.13;11.00;;;12.50;99.90;;;;;;4864490;29;20135;-72
2023/04/24 03:15:18;;;;;;;13.20;8.25;;;12.60;99.90;;;;;;4879412;29;20497;-72
2023/04/24 03:17:43;;;;;;;14.82;9.10;;;12.60;99.90;;;;;;4871310;29;20032;-72
2023/04/24 03:20:10;;;;;;;15.82;9.75;;;12.70;99.90;;;;;;4869715;29;20040;-72
2023/04/24 03:22:36;;;;;;;14.65;9.30;;;12.60;99.90;;;;;;4880291;29;20033;-72
2023/04/24 03:25:06;;;;;;;14.95;8.13;;;12.70;99.90;;;;;;4861083;29;20041;-71
2023/04/24 03:27:32;;;;;;;14.38;8.20;;;12.70;99.90;;;;;;4888523;29;20071;-72
2023/04/24 03:30:06;;;;;;;16.73;9.20;;;12.70;99.90;;;;;;4874231;29;20617;-72
2023/04/24 03:32:44;;;;;;;15.50;8.80;;;12.70;99.90;;;;;;4862567;29;20080;-72
2023/04/24 03:35:12;;;;;;;15.98;9.48;;;12.80;99.90;;;;;;4868477;29;20502;-73
2023/04/24 03:37:38;;;;;;;16.88;9.57;;;12.80;99.90;;;;;;4869542;29;20049;-73
2023/04/24 03:40:24;;;;;;;18.98;9.10;;;12.80;99.90;;;;;;4882919;29;20045;-74
2023/04/24 03:42:51;;;;;;;14.68;8.30;;;12.80;99.90;;;;;;4871843;29;20600;-74
2023/04/24 03:45:17;;;;;;;23.88;9.20;;;12.90;99.90;;;;;;4865185;29;20120;-74
2023/04/24 03:47:47;;;;;;;17.98;9.18;;;12.90;99.90;;;;;;4863828;29;20036;-73
2023/04/24 03:50:13;;;;;;;16.63;8.23;;;12.90;99.90;;;;;;4866275;29;20390;-74
2023/04/24 03:52:40;;;;;;;16.48;8.23;;;13.00;99.90;;;;;;4847976;29;20404;-73
2023/04/24 03:55:07;;;;;;;17.77;8.80;;;13.00;99.90;;;;;;4860850;29;20026;-74
2023/04/24 03:57:37;;;;;;;14.10;9.25;;;12.90;99.90;;;;;;4842697;29;20041;-74
2023/04/24 04:00:14;;;;;;;18.85;10.63;;;12.90;99.90;;;;;;4856742;29;20045;-72
2023/04/24 04:02:47;;;;;;;20.48;9.93;;;12.90;99.90;;;;;;4863791;29;20029;-73
2023/04/24 04:05:13;;;;;;;14.73;8.73;;;12.90;99.90;;;;;;4866884;29;20392;-73
2023/04/24 04:07:41;;;;;;;18.48;9.15;;;13.00;99.90;;;;;;4866917;29;20128;-73
2023/04/24 04:10:07;;;;;;;17.38;10.57;;;13.00;99.90;;;;;;4878571;29;20072;-74
2023/04/24 04:12:36;;;;;;;16.50;9.63;;;13.00;99.90;;;;;;4863658;29;20017;-74
2023/04/24 04:15:02;;;;;;;16.25;9.30;;;13.10;99.90;;;;;;4863318;29;20469;-71
2023/04/24 04:17:28;;;;;;;16.27;8.90;;;13.10;99.90;;;;;;4847309;29;20097;-73
2023/04/24 04:19:53;;;;;;;17.02;9.55;;;13.20;99.90;;;;;;4862861;29;20511;-72
2023/04/24 04:22:19;;;;;;;15.70;8.95;;;13.10;99.90;;;;;;4863324;29;20029;-72
2023/04/24 04:24:50;;;;;;;20.08;9.98;;;13.10;99.90;;;;;;4863508;29;20123;-71
2023/04/24 04:27:21;;;;;;;15.32;9.65;;;13.10;99.90;;;;;;4878810;29;20025;-72
2023/04/24 04:30:09;;;;;;;18.58;9.85;;;13.20;99.90;;;;;;4879605;29;20065;-72
2023/04/24 04:32:45;;;;;;;15.93;8.52;;;13.30;99.90;;;;;;4878751;29;20108;-72
2023/04/24 04:35:10;;;;;;;21.42;9.77;;;13.40;99.90;;;;;;4878226;29;20072;-72
2023/04/24 04:37:36;;;;;;;15.23;8.57;;;13.30;99.90;;;;;;4878423;29;20045;-73
2023/04/24 04:40:12;;;;;;;16.98;8.27;;;13.40;99.90;;;;;;4878671;29;20118;-73
2023/04/24 04:42:55;;;;;;;17.95;9.15;;;13.50;99.90;;;;;;4853421;29;20904;-73
2023/04/24 04:45:24;;;;;;;16.08;8.63;;;13.60;99.90;;;;;;4863428;29;20462;-72
2023/04/24 04:48:12;;;;;;;15.00;8.43;;;13.70;99.90;;;;;;4876438;29;20456;-74
2023/04/24 04:50:38;;;;;;;13.88;7.88;;;13.80;99.90;;;;;;4854648;29;20046;-74
2023/04/24 04:53:07;;;;;;;21.27;10.63;;;13.80;99.90;;;;;;4843298;29;20116;-73
2023/04/24 04:55:37;;;;;;;18.83;9.00;;;13.90;99.90;;;;;;4839885;29;20072;-74
2023/04/24 04:58:15;;;;;;;20.10;9.80;;;13.90;99.90;;;;;;4825335;29;20085;-74
2023/04/24 05:00:41;;;;;;;16.27;8.23;;;13.90;99.90;;;;;;4839018;29;20059;-74
2023/04/24 05:03:15;;;;;;;16.20;8.63;;;13.70;99.90;;;;;;4834502;29;20030;-74
2023/04/24 05:05:42;;;;;;;25.95;10.32;;;13.80;99.90;;;;;;4822443;29;20042;-74
2023/04/24 05:08:11;;;;;;;21.10;9.43;;;13.70;99.90;;;;;;4852092;29;20103;-74
2023/04/24 05:10:37;;;;;;;20.65;9.70;;;13.30;99.90;;;;;;4843928;29;20478;-74
2023/04/24 05:13:04;;;;;;;11.73;8.10;;;13.50;99.90;;;;;;4841244;29;20128;-73
2023/04/24 05:15:31;;;;;;;13.95;8.25;;;13.40;99.90;;;;;;4860390;29;20021;-73
2023/04/24 05:17:59;;;;;;;14.63;8.82;;;13.40;99.90;;;;;;4876178;29;20041;-73
2023/04/24 05:20:26;;;;;;;17.77;8.88;;;13.40;99.90;;;;;;4860893;29;20492;-73
2023/04/24 05:22:53;;;;;;;18.27;9.15;;;13.60;99.90;;;;;;4860983;29;20029;-72
2023/04/24 05:25:21;;;;;;;16.02;9.90;;;13.70;99.90;;;;;;4861381;29;20469;-72
2023/04/24 05:28:00;;;;;;;17.48;10.43;;;13.50;99.90;;;;;;4860827;29;20112;-72
2023/04/24 05:30:26;;;;;;;21.23;10.70;;;13.50;99.90;;;;;;4860937;29;20485;-72
2023/04/24 05:32:53;;;;;;;21.05;9.75;;;13.80;99.90;;;;;;4876747;29;20032;-73
2023/04/24 05:35:19;;;;;;;28.75;10.73;;;13.90;99.90;;;;;;4864288;29;20033;-74
2023/04/24 05:37:45;;;;;;;16.17;8.27;;;13.80;99.90;;;;;;4861785;29;20033;-72
2023/04/24 05:40:13;;;;;;;18.20;8.82;;;13.80;99.90;;;;;;4870491;29;20045;-71
2023/04/24 05:42:38;;;;;;;23.45;9.10;;;13.70;99.90;;;;;;4839344;29;20034;-72
2023/04/24 05:45:05;;;;;;;26.40;9.95;;;13.70;99.90;;;;;;4853138;29;20362;-72
2023/04/24 05:47:31;;;;;;;25.63;10.48;;;13.70;99.90;;;;;;4877009;29;20021;-72
2023/04/24 05:49:57;;;;;;;22.20;10.10;;;13.70;99.90;;;;;;4861698;29;20392;-72
2023/04/24 05:52:23;;;;;;;16.60;8.95;;;13.70;99.90;;;;;;4853074;29;20116;-73
2023/04/24 05:54:50;;;;;;;16.65;9.63;;;13.60;99.90;;;;;;4872742;29;20036;-72
2023/04/24 05:57:21;;;;;;;17.38;10.07;;;13.70;99.90;;;;;;4872201;29;20112;-71
2023/04/24 06:00:01;;;;;;;15.85;9.38;;;13.70;99.90;;;;;;4868949;29;20505;-71
2023/04/24 06:02:32;;;;;;;21.30;11.20;;;13.90;99.90;;;;;;4867865;29;20041;-72
2023/04/24 06:04:59;;;;;;;16.42;10.25;;;14.10;99.90;;;;;;4877263;29;20508;-72
2023/04/24 06:07:28;;;;;;;16.85;9.77;;;14.20;99.90;;;;;;4870297;29;20121;-72
2023/04/24 06:09:55;;;;;;;15.77;8.88;;;14.50;99.90;;;;;;4859764;29;20034;-73
2023/04/24 06:12:22;;;;;;;14.48;8.30;;;14.70;99.90;;;;;;4850841;29;20073;-72
2023/04/24 06:15:00;;;;;;;17.27;8.82;;;14.60;99.90;;;;;;4855818;29;20081;-74
2023/04/24 06:17:44;;;;;;;14.07;7.97;;;14.80;99.90;;;;;;4867539;29;20120;-74
2023/04/24 06:20:11;;;;;;;17.20;8.98;;;15.20;99.90;;;;;;4861495;29;20037;-73
2023/04/24 06:22:39;;;;;;;15.38;8.13;;;15.10;99.90;;;;;;4864568;29;20121;-73
2023/04/24 06:25:07;;;;;;;13.85;7.47;;;15.10;99.90;;;;;;4877636;29;20462;-73
2023/04/24 06:27:33;;;;;;;16.63;8.05;;;14.90;99.90;;;;;;4860289;29;20025;-72
2023/04/24 06:29:58;;;;;;;19.70;8.02;;;15.00;99.90;;;;;;4860521;29;20097;-73
2023/04/24 06:32:24;;;;;;;19.40;8.95;;;14.90;99.90;;;;;;4861182;29;20128;-74
2023/04/24 06:34:53;;;;;;;15.13;8.55;;;14.80;99.90;;;;;;4876521;29;20025;-73
2023/04/24 06:37:20;;;;;;;12.95;8.10;;;14.80;99.90;;;;;;4878118;29;20032;-73
2023/04/24 06:39:46;;;;;;;16.13;7.28;;;14.70;99.90;;;;;;4877442;29;20057;-73
2023/04/24 06:42:12;;;;;;;17.50;8.52;;;14.80;99.90;;;;;;4877589;29;20021;-73
2023/04/24 06:44:40;;;;;;;15.30;8.07;;;14.80;99.90;;;;;;4879846;29;20021;-73
2023/04/24 06:47:13;;;;;;;18.30;8.95;;;14.90;99.90;;;;;;4880606;29;20028;-73
2023/04/24 06:49:39;;;;;;;16.83;8.93;;;14.80;99.90;;;;;;4880924;29;20393;-73
2023/04/24 06:52:06;;;;;;;16.65;8.10;;;15.00;99.90;;;;;;4881035;29;20033;-73
2023/04/24 06:54:32;;;;;;;12.70;7.55;;;14.90;99.90;;;;;;4880812;29;20477;-73
2023/04/24 06:56:58;;;;;;;14.93;9.18;;;14.90;99.90;;;;;;4881358;29;20093;-73
2023/04/24 06:59:25;;;;;;;17.40;7.78;;;15.00;99.90;;;;;;4881438;29;20063;-73
2023/04/24 07:01:51;;;;;;;16.23;7.88;;;15.20;99.90;;;;;;4881413;29;20026;-73
2023/04/24 07:04:17;;;;;;;19.58;9.50;;;15.20;99.90;;;;;;4880991;29;20033;-73
2023/04/24 07:06:45;;;;;;;14.32;8.25;;;15.20;99.90;;;;;;4881404;29;20025;-73
2023/04/24 07:09:13;;;;;;;21.67;8.40;;;15.20;99.90;;;;;;4880929;29;20056;-73
2023/04/24 07:11:40;;;;;;;29.33;8.27;;;15.30;99.90;;;;;;4881247;29;20405;-73
2023/04/24 07:14:06;;;;;;;29.92;8.93;;;15.30;99.90;;;;;;4880164;29;20037;-73
2023/04/24 07:16:32;;;;;;;18.35;7.53;;;15.40;99.90;;;;;;4879763;29;20013;-73
2023/04/24 07:18:58;;;;;;;12.63;7.80;;;15.40;99.90;;;;;;4879813;29;20075;-73
2023/04/24 07:21:25;;;;;;;17.33;9.57;;;15.30;99.90;;;;;;4880835;29;20061;-74
2023/04/24 07:23:52;;;;;;;14.43;7.55;;;15.00;99.90;;;;;;4863684;29;20088;-73
2023/04/24 07:26:17;;;;;;;17.85;7.80;;;14.90;99.90;;;;;;4880836;29;20448;-73
2023/04/24 07:28:43;;;;;;;14.88;8.65;;;15.00;99.90;;;;;;4880339;29;20044;-74
2023/04/24 07:31:10;;;;;;;19.85;9.10;;;15.00;99.90;;;;;;4880499;29;20493;-73
2023/04/24 07:33:36;;;;;;;17.55;7.85;;;15.10;99.90;;;;;;4868942;29;20485;-74
2023/04/24 07:36:02;;;;;;;15.18;8.98;;;15.20;99.90;;;;;;4880646;29;20029;-74
2023/04/24 07:38:30;;;;;;;16.27;7.38;;;15.30;99.90;;;;;;4880983;29;20454;-74
2023/04/24 07:40:56;;;;;;;17.77;8.48;;;15.20;99.90;;;;;;4880799;29;20037;-73
2023/04/24 07:43:23;;;;;;;19.20;10.55;;;15.20;99.90;;;;;;4880620;29;20032;-74
2023/04/24 07:45:50;;;;;;;16.48;9.73;;;15.30;99.90;;;;;;4880776;29;20044;-73
2023/04/24 07:48:17;;;;;;;15.30;8.45;;;15.40;99.90;;;;;;4880384;29;20468;-74
2023/04/24 07:50:44;;;;;;;17.40;9.25;;;15.40;99.90;;;;;;4880640;29;20469;-74
2023/04/24 07:53:10;;;;;;;16.80;8.63;;;15.60;99.90;;;;;;4869442;29;20499;-72
2023/04/24 07:55:36;;;;;;;16.90;9.13;;;15.70;99.90;;;;;;4879662;29;20108;-74
2023/04/24 07:58:02;;;;;;;15.77;9.70;;;15.80;99.90;;;;;;4880663;29;20043;-73
2023/04/24 08:00:28;;;;;;;21.17;9.40;;;15.90;99.90;;;;;;4880903;29;20473;-72
2023/04/24 08:02:53;;;;;;;16.23;9.45;;;16.10;99.90;;;;;;4863748;29;20032;-73
2023/04/24 08:05:19;;;;;;;17.45;10.07;;;16.30;99.90;;;;;;4880480;29;20112;-73
2023/04/24 08:07:48;;;;;;;19.13;9.55;;;16.50;99.90;;;;;;4880181;29;20132;-73
2023/04/24 08:10:14;;;;;;;14.73;9.82;;;16.70;99.90;;;;;;4880041;29;20044;-73
2023/04/24 08:12:41;;;;;;;19.33;10.00;;;16.80;99.90;;;;;;4880258;29;20033;-73
2023/04/24 08:15:07;;;;;;;25.75;12.95;;;17.00;99.90;;;;;;4879322;29;20385;-73
2023/04/24 08:17:36;;;;;;;21.13;11.88;;;17.10;99.90;;;;;;4879392;29;20104;-73
2023/04/24 08:20:05;;;;;;;18.15;11.13;;;17.10;99.90;;;;;;4879731;29;20441;-74
2023/04/24 08:22:31;;;;;;;19.50;10.15;;;17.00;99.90;;;;;;4880347;29;20025;-73
2023/04/24 08:24:57;;;;;;;20.50;10.70;;;16.90;99.90;;;;;;4879672;29;20028;-73
2023/04/24 08:27:26;;;;;;;21.55;13.07;;;17.00;99.90;;;;;;4879787;29;20385;-73
2023/04/24 08:29:55;;;;;;;22.75;13.68;;;16.90;99.90;;;;;;4873409;29;20112;-73
2023/04/24 08:32:21;;;;;;;24.80;13.88;;;16.80;99.90;;;;;;4873201;29;20111;-73
2023/04/24 08:34:47;;;;;;;25.20;12.82;;;16.80;99.90;;;;;;4880197;29;20476;-74
2023/04/24 08:37:13;;;;;;;25.80;13.00;;;16.90;99.90;;;;;;4856295;29;20053;-74
2023/04/24 08:39:39;;;;;;;23.02;13.48;;;16.70;99.90;;;;;;4879337;29;20064;-72
2023/04/24 08:42:07;;;;;;;22.85;14.77;;;16.70;99.90;;;;;;4879493;29;20426;-73
2023/04/24 08:44:35;;;;;;;25.35;14.90;;;16.50;99.90;;;;;;4879225;29;20029;-73
2023/04/24 08:47:05;;;;;;;28.35;14.40;;;16.50;99.90;;;;;;4879455;29;20024;-73
2023/04/24 08:49:31;;;;;;;24.27;14.07;;;16.40;99.90;;;;;;4875630;29;20074;-74
2023/04/24 08:51:57;;;;;;;19.98;13.13;;;16.40;99.90;;;;;;4865149;29;20077;-73
2023/04/24 08:54:24;;;;;;;19.15;11.68;;;16.40;99.90;;;;;;4879160;29;20335;-73
2023/04/24 08:56:53;;;;;;;17.92;9.63;;;16.60;99.90;;;;;;4879216;29;20025;-74
2023/04/24 08:59:20;;;;;;;17.52;10.13;;;16.50;99.90;;;;;;4879270;29;20060;-74
2023/04/24 09:01:48;;;;;;;19.17;10.15;;;16.50;99.90;;;;;;4879469;29;20025;-74
2023/04/24 09:04:15;;;;;;;19.42;11.63;;;16.50;99.90;;;;;;4878883;29;20025;-74
2023/04/24 09:06:42;;;;;;;21.42;10.85;;;16.60;99.90;;;;;;4879236;29;20025;-73
2023/04/24 09:09:11;;;;;;;16.85;10.32;;;16.70;99.90;;;;;;4878786;29;20045;-73
2023/04/24 09:11:37;;;;;;;18.95;10.82;;;16.90;99.90;;;;;;4864663;29;20041;-74
2023/04/24 09:14:04;;;;;;;25.77;12.88;;;16.90;99.90;;;;;;4879067;29;20047;-74
2023/04/24 09:16:33;;;;;;;20.30;12.27;;;16.40;99.90;;;;;;4878431;29;20104;-73
2023/04/24 09:18:58;;;;;;;23.30;12.63;;;16.50;99.90;;;;;;4879661;29;20470;-73
2023/04/24 09:21:31;;;;;;;21.95;13.02;;;16.50;99.90;;;;;;4878623;29;20081;-74
2023/04/24 09:24:03;;;;;;;20.73;12.52;;;16.60;99.90;;;;;;4877944;29;20450;-73
2023/04/24 09:26:33;;;;;;;23.00;13.23;;;16.70;99.90;;;;;;4878670;29;20033;-74
2023/04/24 09:29:00;;;;;;;22.02;14.38;;;16.70;99.90;;;;;;4878876;29;20460;-73
2023/04/24 09:31:28;;;;;;;19.30;13.45;;;16.70;99.90;;;;;;4879074;29;20029;-73
2023/04/24 09:33:59;;;;;;;18.13;11.63;;;17.00;99.90;;;;;;4878737;29;20119;-74
2023/04/24 09:36:39;;;;;;;21.90;10.93;;;17.30;99.90;;;;;;4878940;29;20068;-73
2023/04/24 09:39:08;;;;;;;23.92;12.85;;;17.10;99.90;;;;;;4878504;29;20055;-74
2023/04/24 09:41:34;;;;;;;23.80;12.88;;;16.70;99.90;;;;;;4878766;29;20021;-73
2023/04/24 09:44:19;;;;;;;23.05;14.65;;;16.70;99.90;;;;;;4878674;29;20474;-74
2023/04/24 09:46:49;;;;;;;22.38;13.95;;;16.60;99.90;;;;;;4877389;29;20048;-73
2023/04/24 09:49:17;;;;;;;18.23;12.50;;;16.50;99.90;;;;;;4878882;29;20024;-74
2023/04/24 09:51:43;;;;;;;17.02;11.18;;;16.50;99.90;;;;;;4878373;29;20029;-74
2023/04/24 09:54:17;;;;;;;21.75;12.13;;;16.40;99.90;;;;;;4878683;29;20044;-74
2023/04/24 09:56:45;;;;;;;21.00;11.18;;;16.50;99.90;;;;;;4878550;29;20481;-74
2023/04/24 09:59:11;;;;;;;17.42;11.35;;;16.40;99.90;;;;;;4878256;29;20033;-73
2023/04/24 10:01:38;;;;;;;20.08;11.85;;;16.30;99.90;;;;;;4878480;29;20025;-73
2023/04/24 10:04:04;;;;;;;18.75;11.75;;;16.40;99.90;;;;;;4878077;29;20089;-73
2023/04/24 10:06:33;;;;;;;16.60;10.40;;;16.50;99.90;;;;;;4878240;29;20025;-74
2023/04/24 10:08:59;;;;;;;15.68;9.60;;;16.60;99.90;;;;;;4860946;29;20054;-74
2023/04/24 10:11:27;;;;;;;16.40;9.85;;;16.60;99.90;;;;;;4858867;29;20466;-73
2023/04/24 10:13:55;;;;;;;18.98;9.65;;;16.70;99.90;;;;;;4859506;29;20029;-73
2023/04/24 10:16:24;;;;;;;14.65;9.10;;;16.70;99.90;;;;;;4859566;29;20042;-73
2023/04/24 10:18:51;;;;;;;14.48;9.00;;;16.80;99.90;;;;;;4859057;29;20100;-74
2023/04/24 10:21:17;;;;;;;14.15;9.15;;;16.80;99.90;;;;;;4859597;29;20029;-74
2023/04/24 10:23:46;;;;;;;16.30;10.00;;;16.80;99.90;;;;;;4859628;29;20040;-73
2023/04/24 10:26:17;;;;;;;14.35;9.13;;;16.90;99.90;;;;;;4859383;29;20041;-74
2023/04/24 10:28:47;;;;;;;17.77;10.07;;;16.90;99.90;;;;;;4859078;29;20039;-74
2023/04/24 10:31:15;;;;;;;14.95;9.48;;;16.90;99.90;;;;;;4859117;29;20033;-73
2023/04/24 10:33:42;;;;;;;13.98;8.93;;;16.90;99.90;;;;;;4859511;29;20025;-74
2023/04/24 10:36:10;;;;;;;14.20;8.85;;;16.90;99.90;;;;;;4859794;29;20036;-73
2023/04/24 10:38:39;;;;;;;12.77;8.50;;;17.00;99.90;;;;;;4859123;29;20403;-74
2023/04/24 10:41:16;;;;;;;15.95;8.25;;;17.10;99.90;;;;;;4859188;29;20029;-74
2023/04/24 10:43:43;;;;;;;17.10;8.88;;;17.10;99.90;;;;;;4859885;29;20046;-74
2023/04/24 10:46:12;;;;;;;13.00;8.18;;;17.20;99.90;;;;;;4851034;29;20048;-73
2023/04/24 10:48:43;;;;;;;13.98;8.52;;;17.30;99.90;;;;;;4853261;29;20032;-74
2023/04/24 10:51:13;;;;;;;13.65;8.57;;;17.40;99.90;;;;;;4859019;29;20545;-73
2023/04/24 10:53:40;;;;;;;17.08;8.65;;;17.50;99.90;;;;;;4835715;29;20034;-75
2023/04/24 10:58:53;;;;;;;16.35;7.93;;;17.50;99.90;;;;;;4869970;29;20105;-72
2023/04/24 11:01:26;;;;;;;14.70;8.27;;;17.60;99.90;;;;;;4891538;29;20039;-73
2023/04/24 11:03:58;;;;;;;14.93;8.38;;;17.60;99.90;;;;;;4894712;29;20116;-73
2023/04/24 11:06:35;;;;;;;23.48;8.77;;;17.70;99.90;;;;;;4891626;29;20028;-73
2023/04/24 11:09:12;;;;;;;18.67;8.35;;;17.80;99.90;;;;;;4896180;29;20033;-73
2023/04/24 11:11:44;;;;;;;12.10;7.05;;;17.80;99.90;;;;;;4880944;29;20037;-73
2023/04/24 11:14:10;;;;;;;20.08;7.10;;;18.00;99.90;;;;;;4895375;29;20492;-73
2023/04/24 11:16:36;;;;;;;10.57;6.82;;;18.10;99.90;;;;;;4896453;29;20037;-72
2023/04/24 11:19:17;;;;;;;14.10;6.85;;;18.20;99.90;;;;;;4855102;29;20028;-73
2023/04/24 11:22:03;;;;;;;15.30;7.47;;;18.20;99.90;;;;;;4891107;29;20095;-73
2023/04/24 11:24:38;;;;;;;13.13;6.07;;;18.10;99.90;;;;;;4879860;29;20036;-72
2023/04/24 11:27:13;;;;;;;12.45;6.20;;;18.10;99.90;;;;;;4875150;29;20068;-73
2023/04/24 11:29:43;;;;;;;13.02;5.65;;;18.40;99.90;;;;;;4914466;29;20114;-73
2023/04/24 11:32:22;;;;;;;9.05;5.40;;;18.50;99.90;;;;;;4898247;29;20043;-72
2023/04/24 11:34:50;;;;;;;13.63;6.22;;;18.50;99.90;;;;;;4903256;29;20029;-73
2023/04/24 11:37:16;;;;;;;15.05;7.15;;;18.50;99.90;;;;;;4901167;29;20096;-72
2023/04/24 11:39:42;;;;;;;11.98;6.28;;;18.60;99.90;;;;;;4907141;29;20103;-73
2023/04/24 11:42:09;;;;;;;9.88;5.85;;;18.40;99.90;;;;;;4918403;29;20032;-72
2023/04/24 11:44:39;;;;;;;11.00;6.05;;;18.40;99.90;;;;;;4918240;29;20060;-73
2023/04/24 11:47:06;;;;;;;11.57;5.30;;;18.50;99.90;;;;;;4901495;29;20032;-74
2023/04/24 11:49:32;;;;;;;11.27;5.50;;;18.40;99.90;;;;;;4926958;29;20059;-72
2023/04/24 11:52:01;;;;;;;9.57;5.30;;;18.60;99.90;;;;;;4908356;29;20064;-73
2023/04/24 11:54:27;;;;;;;11.23;5.95;;;18.50;99.90;;;;;;4900944;29;20100;-72
2023/04/24 11:56:53;;;;;;;10.25;5.75;;;18.50;99.90;;;;;;4905557;29;20064;-72
2023/04/24 11:59:24;;;;;;;9.60;5.38;;;18.50;99.90;;;;;;4899036;29;20036;-72
2023/04/24 12:01:50;;;;;;;9.85;5.75;;;18.60;99.90;;;;;;4864491;29;20045;-72
2023/04/24 12:04:18;;;;;;;9.13;5.57;;;18.70;99.90;;;;;;4886224;29;20033;-73
2023/04/24 12:07:04;;;;;;;10.23;5.28;;;18.80;99.90;;;;;;4876336;29;20433;-73
2023/04/24 12:09:58;;;;;;;10.63;5.47;;;18.60;99.90;;;;;;4882588;29;20108;-74
2023/04/24 12:12:26;;;;;;;10.65;6.07;;;18.80;99.90;;;;;;4881935;29;20418;-75
2023/04/24 12:14:55;;;;;;;16.98;6.45;;;19.00;99.90;;;;;;4891776;29;20041;-72
2023/04/24 12:17:32;;;;;;;19.35;6.65;;;19.00;99.90;;;;;;4887082;29;20032;-74
2023/04/24 12:20:00;;;;;;;8.68;5.18;;;19.20;99.90;;;;;;4895404;29;20599;-75
2023/04/24 12:22:26;;;;;;;11.75;5.25;;;19.30;99.90;;;;;;4890186;29;20021;-75
2023/04/24 12:25:03;;;;;;;10.50;5.47;;;19.40;99.90;;;;;;4886285;29;20460;-74
2023/04/24 12:27:33;;;;;;;9.27;5.72;;;19.50;99.90;;;;;;4886168;29;20088;-75
2023/04/24 12:30:02;;;;;;;11.43;6.05;;;19.60;99.90;;;;;;4882173;29;20033;-73
2023/04/24 12:32:28;;;;;;;10.50;6.75;;;19.70;99.90;;;;;;4892585;29;20033;-71
2023/04/24 12:34:55;;;;;;;8.48;5.28;;;19.80;99.90;;;;;;4898635;29;20545;-73
2023/04/24 12:37:25;;;;;;;11.18;5.60;;;19.70;99.90;;;;;;4869780;29;20017;-71
2023/04/24 12:40:06;;;;;;;9.23;5.70;;;19.70;99.50;;;;;;4880054;29;20041;-72
2023/04/24 12:42:32;;;;;;;12.95;6.10;;;19.80;99.90;;;;;;4880203;29;20061;-72
2023/04/24 12:45:00;;;;;;;9.40;5.28;;;19.70;99.30;;;;;;4898306;29;20078;-72
2023/04/24 12:47:31;;;;;;;9.85;4.72;;;19.80;99.90;;;;;;4888546;29;20065;-72